sensor_id;sensor_type;location;lat;lon;timestamp;pressure;altitude;pressure_sealevel;temperature;humidity
19236;BME280;9752;54.270;12.470;2023-05-22T00:00:28;102231.41;;;12.48;100.00
19236;BME280;9752;54.270;12.470;2023-05-22T00:05:31;102287.22;;;12.52;100.00
19236;BME280;9752;54.270;12.470;2023-05-22T00:10:39;102330.88;;;12.44;100.00
19236;BME280;9752;54.270;12.470;2023-05-22T00:15:41;102348.75;;;12.39;100.00
19236;BME280;9752;54.270;12.470;2023-05-22T00:20:42;102367.25;;;12.32;100.00
19236;BME280;9752;54.270;12.470;2023-05-22T00:25:47;102373.91;;;12.28;100.00
19236;BME280;9752;54.270;12.470;2023-05-22T00:30:50;102389.69;;;12.20;100.00
19236;BME280;9752;54.270;12.470;2023-05-22T00:35:51;102398.88;;;12.04;100.00
19236;BME280;9752;54.270;12.470;2023-05-22T00:40:55;102418.03;;;11.95;100.00
19236;BME280;9752;54.270;12.470;2023-05-22T00:45:57;102436.84;;;12.02;100.00
19236;BME280;9752;54.270;12.470;2023-05-22T00:51:00;102452.63;;;11.83;100.00
19236;BME280;9752;54.270;12.470;2023-05-22T00:56:05;102463.47;;;11.67;100.00
19236;BME280;9752;54.270;12.470;2023-05-22T01:01:07;102474.81;;;11.47;100.00
19236;BME280;9752;54.270;12.470;2023-05-22T01:06:09;102520.94;;;11.50;100.00
19236;BME280;9752;54.270;12.470;2023-05-22T01:11:15;102531.84;;;11.36;100.00
19236;BME280;9752;54.270;12.470;2023-05-22T01:16:23;102558.22;;;11.30;100.00
19236;BME280;9752;54.270;12.470;2023-05-22T01:21:33;102577.56;;;11.23;100.00
19236;BME280;9752;54.270;12.470;2023-05-22T01:32:19;102644.34;;;11.45;100.00
19236;BME280;9752;54.270;12.470;2023-05-22T01:37:25;102664.72;;;11.30;100.00
19236;BME280;9752;54.270;12.470;2023-05-22T01:42:27;102681.06;;;11.19;100.00
19236;BME280;9752;54.270;12.470;2023-05-22T01:47:31;102706.63;;;11.14;100.00
19236;BME280;9752;54.270;12.470;2023-05-22T01:52:41;102722.06;;;11.12;100.00
19236;BME280;9752;54.270;12.470;2023-05-22T01:57:52;102739.22;;;11.10;100.00
19236;BME280;9752;54.270;12.470;2023-05-22T02:03:04;102761.09;;;11.04;100.00
19236;BME280;9752;54.270;12.470;2023-05-22T02:08:06;102768.72;;;10.92;100.00
19236;BME280;9752;54.270;12.470;2023-05-22T02:13:12;102770.31;;;10.81;100.00
19236;BME280;9752;54.270;12.470;2023-05-22T02:18:16;102780.94;;;10.74;100.00
19236;BME280;9752;54.270;12.470;2023-05-22T02:23:18;102796.63;;;10.75;100.00
19236;BME280;9752;54.270;12.470;2023-05-22T02:28:20;102816.94;;;10.80;100.00
19236;BME280;9752;54.270;12.470;2023-05-22T02:33:23;102832.72;;;10.72;100.00
19236;BME280;9752;54.270;12.470;2023-05-22T02:38:27;102850.16;;;10.65;100.00
19236;BME280;9752;54.270;12.470;2023-05-22T02:43:29;102867.44;;;10.64;100.00
19236;BME280;9752;54.270;12.470;2023-05-22T02:48:32;102889.13;;;10.56;100.00
19236;BME280;9752;54.270;12.470;2023-05-22T02:53:34;102897.25;;;10.50;100.00
19236;BME280;9752;54.270;12.470;2023-05-22T02:58:39;102911.50;;;10.45;100.00
19236;BME280;9752;54.270;12.470;2023-05-22T03:03:43;102934.53;;;10.51;100.00
19236;BME280;9752;54.270;12.470;2023-05-22T03:08:45;102948.44;;;10.43;100.00
19236;BME280;9752;54.270;12.470;2023-05-22T03:13:48;102951.81;;;10.42;100.00
19236;BME280;9752;54.270;12.470;2023-05-22T03:19:06;102971.03;;;10.35;100.00
19236;BME280;9752;54.270;12.470;2023-05-22T03:24:08;102984.16;;;10.37;100.00
19236;BME280;9752;54.270;12.470;2023-05-22T03:29:11;102998.19;;;10.47;100.00
19236;BME280;9752;54.270;12.470;2023-05-22T03:34:16;103012.94;;;10.57;100.00
19236;BME280;9752;54.270;12.470;2023-05-22T03:39:20;103037.31;;;10.68;100.00
19236;BME280;9752;54.270;12.470;2023-05-22T03:44:29;103056.50;;;10.79;100.00
19236;BME280;9752;54.270;12.470;2023-05-22T03:49:32;103075.56;;;10.88;100.00
19236;BME280;9752;54.270;12.470;2023-05-22T03:54:34;103100.72;;;10.98;100.00
19236;BME280;9752;54.270;12.470;2023-05-22T03:59:37;103121.31;;;11.13;100.00
19236;BME280;9752;54.270;12.470;2023-05-22T04:04:40;103137.72;;;11.31;100.00
19236;BME280;9752;54.270;12.470;2023-05-22T04:09:41;103157.66;;;11.50;100.00
19236;BME280;9752;54.270;12.470;2023-05-22T04:14:43;103169.75;;;11.68;100.00
19236;BME280;9752;54.270;12.470;2023-05-22T04:19:46;103229.75;;;11.89;100.00
19236;BME280;9752;54.270;12.470;2023-05-22T04:24:48;103234.41;;;12.10;100.00
19236;BME280;9752;54.270;12.470;2023-05-22T04:29:50;103227.22;;;12.27;100.00
19236;BME280;9752;54.270;12.470;2023-05-22T04:34:53;103238.84;;;12.49;100.00
19236;BME280;9752;54.270;12.470;2023-05-22T04:39:57;103234.16;;;12.75;100.00
19236;BME280;9752;54.270;12.470;2023-05-22T04:45:05;103233.41;;;13.05;100.00
19236;BME280;9752;54.270;12.470;2023-05-22T04:50:09;103218.41;;;13.32;100.00
19236;BME280;9752;54.270;12.470;2023-05-22T04:55:11;103189.81;;;13.62;100.00
19236;BME280;9752;54.270;12.470;2023-05-22T05:00:14;103161.81;;;13.91;100.00
19236;BME280;9752;54.270;12.470;2023-05-22T05:05:20;103135.38;;;14.29;100.00
19236;BME280;9752;54.270;12.470;2023-05-22T05:10:22;103074.03;;;14.56;100.00
19236;BME280;9752;54.270;12.470;2023-05-22T05:15:23;103011.31;;;14.88;100.00
19236;BME280;9752;54.270;12.470;2023-05-22T05:20:28;102939.59;;;15.18;100.00
19236;BME280;9752;54.270;12.470;2023-05-22T05:25:30;102865.81;;;15.58;100.00
19236;BME280;9752;54.270;12.470;2023-05-22T05:30:32;102775.28;;;15.97;100.00
19236;BME280;9752;54.270;12.470;2023-05-22T05:35:51;102672.28;;;16.35;100.00
19236;BME280;9752;54.270;12.470;2023-05-22T05:40:57;102529.44;;;16.82;100.00
19236;BME280;9752;54.270;12.470;2023-05-22T05:45:59;102447.22;;;17.23;100.00
19236;BME280;9752;54.270;12.470;2023-05-22T05:51:03;102365.19;;;17.40;100.00
19236;BME280;9752;54.270;12.470;2023-05-22T05:56:13;102273.00;;;17.65;100.00
19236;BME280;9752;54.270;12.470;2023-05-22T06:01:15;102192.63;;;17.51;100.00
19236;BME280;9752;54.270;12.470;2023-05-22T06:06:20;102150.91;;;17.39;100.00
19236;BME280;9752;54.270;12.470;2023-05-22T06:11:43;102123.84;;;17.56;100.00
19236;BME280;9752;54.270;12.470;2023-05-22T06:16:46;102107.78;;;17.83;100.00
19236;BME280;9752;54.270;12.470;2023-05-22T06:21:49;102091.31;;;18.04;100.00
19236;BME280;9752;54.270;12.470;2023-05-22T06:26:51;102054.72;;;18.43;100.00
19236;BME280;9752;54.270;12.470;2023-05-22T06:31:53;102013.34;;;18.94;100.00
19236;BME280;9752;54.270;12.470;2023-05-22T06:36:57;102007.66;;;19.04;100.00
19236;BME280;9752;54.270;12.470;2023-05-22T06:42:04;102003.94;;;19.19;100.00
19236;BME280;9752;54.270;12.470;2023-05-22T06:47:26;101999.41;;;19.76;100.00
19236;BME280;9752;54.270;12.470;2023-05-22T06:52:29;101991.72;;;20.24;100.00
19236;BME280;9752;54.270;12.470;2023-05-22T06:57:33;101980.56;;;20.77;100.00
19236;BME280;9752;54.270;12.470;2023-05-22T07:02:38;101983.94;;;20.73;100.00
19236;BME280;9752;54.270;12.470;2023-05-22T07:07:55;101976.44;;;20.83;100.00
19236;BME280;9752;54.270;12.470;2023-05-22T07:12:56;101980.88;;;20.62;100.00
19236;BME280;9752;54.270;12.470;2023-05-22T07:17:59;101972.00;;;20.37;100.00
19236;BME280;9752;54.270;12.470;2023-05-22T07:23:02;101974.19;;;20.47;100.00
19236;BME280;9752;54.270;12.470;2023-05-22T07:28:05;101986.63;;;20.52;100.00
19236;BME280;9752;54.270;12.470;2023-05-22T07:33:11;101986.78;;;20.77;100.00
19236;BME280;9752;54.270;12.470;2023-05-22T07:38:15;101987.22;;;20.90;100.00
19236;BME280;9752;54.270;12.470;2023-05-22T07:43:25;101973.22;;;21.16;100.00
19236;BME280;9752;54.270;12.470;2023-05-22T07:48:27;101973.22;;;21.66;100.00
19236;BME280;9752;54.270;12.470;2023-05-22T07:53:30;101972.44;;;21.69;100.00
19236;BME280;9752;54.270;12.470;2023-05-22T07:58:35;101969.28;;;22.08;100.00
19236;BME280;9752;54.270;12.470;2023-05-22T08:03:39;101966.03;;;22.16;100.00
19236;BME280;9752;54.270;12.470;2023-05-22T08:08:43;101952.66;;;22.39;100.00
19236;BME280;9752;54.270;12.470;2023-05-22T08:13:44;101960.91;;;22.80;100.00
19236;BME280;9752;54.270;12.470;2023-05-22T08:18:46;101958.84;;;23.00;100.00
19236;BME280;9752;54.270;12.470;2023-05-22T08:23:49;101957.63;;;22.89;100.00
19236;BME280;9752;54.270;12.470;2023-05-22T08:28:51;101957.31;;;23.08;100.00
19236;BME280;9752;54.270;12.470;2023-05-22T08:33:52;101946.19;;;23.22;100.00
19236;BME280;9752;54.270;12.470;2023-05-22T08:38:57;101949.31;;;23.07;100.00
19236;BME280;9752;54.270;12.470;2023-05-22T08:43:58;101939.72;;;23.44;100.00
19236;BME280;9752;54.270;12.470;2023-05-22T08:49:01;101937.28;;;23.18;100.00
19236;BME280;9752;54.270;12.470;2023-05-22T08:54:05;101934.97;;;23.65;100.00
19236;BME280;9752;54.270;12.470;2023-05-22T08:59:07;101925.03;;;23.91;100.00
19236;BME280;9752;54.270;12.470;2023-05-22T09:04:09;101928.50;;;23.89;100.00
19236;BME280;9752;54.270;12.470;2023-05-22T09:09:13;101923.88;;;23.80;100.00
19236;BME280;9752;54.270;12.470;2023-05-22T09:14:15;101920.56;;;23.54;100.00
19236;BME280;9752;54.270;12.470;2023-05-22T09:19:16;101905.38;;;23.82;100.00
19236;BME280;9752;54.270;12.470;2023-05-22T09:24:20;101901.03;;;24.25;100.00
19236;BME280;9752;54.270;12.470;2023-05-22T09:29:21;101904.66;;;24.28;100.00
19236;BME280;9752;54.270;12.470;2023-05-22T09:34:26;101897.72;;;24.35;100.00
19236;BME280;9752;54.270;12.470;2023-05-22T09:39:38;101890.94;;;24.49;100.00
19236;BME280;9752;54.270;12.470;2023-05-22T09:44:40;101896.13;;;24.86;100.00
19236;BME280;9752;54.270;12.470;2023-05-22T09:49:44;101879.00;;;25.19;100.00
19236;BME280;9752;54.270;12.470;2023-05-22T09:54:49;101878.69;;;25.50;100.00
19236;BME280;9752;54.270;12.470;2023-05-22T09:59:54;101881.44;;;25.08;96.93
19236;BME280;9752;54.270;12.470;2023-05-22T10:04:59;101880.03;;;24.78;99.01
19236;BME280;9752;54.270;12.470;2023-05-22T10:10:06;101875.75;;;24.86;94.64
19236;BME280;9752;54.270;12.470;2023-05-22T10:15:10;101865.75;;;25.20;93.47
19236;BME280;9752;54.270;12.470;2023-05-22T10:20:12;101851.91;;;25.37;90.53
19236;BME280;9752;54.270;12.470;2023-05-22T10:25:16;101856.41;;;26.00;92.40
19236;BME280;9752;54.270;12.470;2023-05-22T10:30:23;101842.56;;;26.29;91.08
19236;BME280;9752;54.270;12.470;2023-05-22T10:35:50;101835.59;;;26.39;89.82
19236;BME280;9752;54.270;12.470;2023-05-22T10:40:54;101833.03;;;26.45;93.84
19236;BME280;9752;54.270;12.470;2023-05-22T10:46:04;101839.25;;;25.80;92.60
19236;BME280;9752;54.270;12.470;2023-05-22T10:51:08;101819.25;;;26.05;90.58
19236;BME280;9752;54.270;12.470;2023-05-22T10:56:12;101812.66;;;25.80;86.51
19236;BME280;9752;54.270;12.470;2023-05-22T11:01:16;101820.63;;;25.77;90.23
19236;BME280;9752;54.270;12.470;2023-05-22T11:06:35;101812.09;;;25.99;91.44
19236;BME280;9752;54.270;12.470;2023-05-22T11:11:38;101807.88;;;26.18;93.15
19236;BME280;9752;54.270;12.470;2023-05-22T11:16:40;101805.25;;;26.21;94.03
19236;BME280;9752;54.270;12.470;2023-05-22T11:21:43;101792.31;;;26.55;92.75
19236;BME280;9752;54.270;12.470;2023-05-22T11:27:00;101797.91;;;26.80;95.82
19236;BME280;9752;54.270;12.470;2023-05-22T11:32:03;101785.22;;;26.56;94.81
19236;BME280;9752;54.270;12.470;2023-05-22T11:37:05;101789.47;;;26.38;93.26
19236;BME280;9752;54.270;12.470;2023-05-22T11:42:08;101775.03;;;27.05;96.84
19236;BME280;9752;54.270;12.470;2023-05-22T11:47:10;101767.16;;;27.17;94.67
19236;BME280;9752;54.270;12.470;2023-05-22T11:52:12;101768.47;;;26.60;89.54
19236;BME280;9752;54.270;12.470;2023-05-22T11:57:17;101772.09;;;26.71;92.51
19236;BME280;9752;54.270;12.470;2023-05-22T12:02:19;101759.91;;;26.98;88.82
19236;BME280;9752;54.270;12.470;2023-05-22T12:07:21;101772.00;;;26.60;91.44
19236;BME280;9752;54.270;12.470;2023-05-22T12:12:25;101761.13;;;26.37;87.97
19236;BME280;9752;54.270;12.470;2023-05-22T12:17:27;101758.38;;;26.33;91.38
19236;BME280;9752;54.270;12.470;2023-05-22T12:22:29;101744.59;;;26.71;86.79
19236;BME280;9752;54.270;12.470;2023-05-22T12:27:32;101741.50;;;26.27;84.35
19236;BME280;9752;54.270;12.470;2023-05-22T12:32:34;101742.00;;;26.78;86.34
19236;BME280;9752;54.270;12.470;2023-05-22T12:37:35;101734.19;;;27.01;85.62
19236;BME280;9752;54.270;12.470;2023-05-22T12:42:39;101720.72;;;26.80;84.06
19236;BME280;9752;54.270;12.470;2023-05-22T12:47:40;101727.72;;;26.68;81.93
19236;BME280;9752;54.270;12.470;2023-05-22T12:52:42;101724.19;;;26.70;82.60
19236;BME280;9752;54.270;12.470;2023-05-22T12:57:45;101731.25;;;26.69;85.62
19236;BME280;9752;54.270;12.470;2023-05-22T13:02:47;101722.53;;;26.85;83.62
19236;BME280;9752;54.270;12.470;2023-05-22T13:07:49;101728.94;;;27.12;86.57
19236;BME280;9752;54.270;12.470;2023-05-22T13:12:52;101723.84;;;27.46;83.75
19236;BME280;9752;54.270;12.470;2023-05-22T13:17:54;101717.41;;;27.13;85.08
19236;BME280;9752;54.270;12.470;2023-05-22T13:22:56;101703.22;;;27.20;83.61
19236;BME280;9752;54.270;12.470;2023-05-22T13:27:59;101697.75;;;26.96;82.81
19236;BME280;9752;54.270;12.470;2023-05-22T13:33:01;101700.53;;;27.11;84.79
19236;BME280;9752;54.270;12.470;2023-05-22T13:38:03;101696.84;;;26.89;82.19
19236;BME280;9752;54.270;12.470;2023-05-22T13:43:06;101689.88;;;27.10;81.29
19236;BME280;9752;54.270;12.470;2023-05-22T13:48:08;101684.72;;;27.33;81.14
19236;BME280;9752;54.270;12.470;2023-05-22T13:53:10;101699.81;;;27.37;84.59
19236;BME280;9752;54.270;12.470;2023-05-22T13:58:13;101687.44;;;27.48;83.93
19236;BME280;9752;54.270;12.470;2023-05-22T14:03:15;101683.81;;;27.31;79.35
19236;BME280;9752;54.270;12.470;2023-05-22T14:08:17;101680.13;;;27.12;80.37
19236;BME280;9752;54.270;12.470;2023-05-22T14:13:20;101685.22;;;26.79;83.05
19236;BME280;9752;54.270;12.470;2023-05-22T14:18:22;101676.53;;;27.08;80.51
19236;BME280;9752;54.270;12.470;2023-05-22T14:23:24;101664.53;;;28.06;80.63
19236;BME280;9752;54.270;12.470;2023-05-22T14:28:27;101641.34;;;29.28;78.14
19236;BME280;9752;54.270;12.470;2023-05-22T14:33:31;101633.78;;;30.11;73.90
19236;BME280;9752;54.270;12.470;2023-05-22T14:38:32;101609.91;;;30.86;66.54
19236;BME280;9752;54.270;12.470;2023-05-22T14:43:35;101610.69;;;29.93;63.43
19236;BME280;9752;54.270;12.470;2023-05-22T14:48:37;101626.91;;;29.75;66.37
19236;BME280;9752;54.270;12.470;2023-05-22T14:53:39;101628.66;;;29.76;67.45
19236;BME280;9752;54.270;12.470;2023-05-22T14:58:42;101617.34;;;30.58;66.23
19236;BME280;9752;54.270;12.470;2023-05-22T15:03:43;101623.31;;;29.76;64.08
19236;BME280;9752;54.270;12.470;2023-05-22T15:08:45;101595.88;;;30.62;62.58
19236;BME280;9752;54.270;12.470;2023-05-22T15:13:48;101609.06;;;29.65;63.51
19236;BME280;9752;54.270;12.470;2023-05-22T15:18:50;101611.28;;;30.39;65.27
19236;BME280;9752;54.270;12.470;2023-05-22T15:23:52;101609.00;;;29.86;63.68
19236;BME280;9752;54.270;12.470;2023-05-22T15:28:55;101626.34;;;28.73;64.63
19236;BME280;9752;54.270;12.470;2023-05-22T15:34:00;101599.47;;;29.31;61.11
19236;BME280;9752;54.270;12.470;2023-05-22T15:39:02;101600.28;;;29.47;63.42
19236;BME280;9752;54.270;12.470;2023-05-22T15:44:08;101611.19;;;28.73;65.40
19236;BME280;9752;54.270;12.470;2023-05-22T15:49:10;101635.63;;;26.91;71.28
19236;BME280;9752;54.270;12.470;2023-05-22T15:54:11;101639.88;;;25.08;83.77
19236;BME280;9752;54.270;12.470;2023-05-22T15:59:15;101596.97;;;28.19;83.51
19236;BME280;9752;54.270;12.470;2023-05-22T16:04:16;101577.78;;;29.85;76.89
19236;BME280;9752;54.270;12.470;2023-05-22T16:09:18;101555.53;;;30.79;72.14
19236;BME280;9752;54.270;12.470;2023-05-22T16:14:21;101562.94;;;29.29;65.20
19236;BME280;9752;54.270;12.470;2023-05-22T16:19:23;101577.38;;;28.78;71.50
19236;BME280;9752;54.270;12.470;2023-05-22T16:24:24;101574.50;;;29.37;74.31
19236;BME280;9752;54.270;12.470;2023-05-22T16:29:28;101577.88;;;29.68;73.18
19236;BME280;9752;54.270;12.470;2023-05-22T16:34:31;101569.88;;;29.73;70.38
19236;BME280;9752;54.270;12.470;2023-05-22T16:39:33;101582.75;;;28.60;71.48
19236;BME280;9752;54.270;12.470;2023-05-22T16:44:36;101578.31;;;28.23;69.75
19236;BME280;9752;54.270;12.470;2023-05-22T16:49:38;101574.72;;;27.92;69.30
19236;BME280;9752;54.270;12.470;2023-05-22T16:54:39;101568.50;;;28.41;66.14
19236;BME280;9752;54.270;12.470;2023-05-22T16:59:43;101577.34;;;28.81;67.10
19236;BME280;9752;54.270;12.470;2023-05-22T17:04:44;101589.88;;;27.93;67.25
19236;BME280;9752;54.270;12.470;2023-05-22T17:09:46;101592.25;;;27.16;72.40
19236;BME280;9752;54.270;12.470;2023-05-22T17:14:49;101597.72;;;27.44;72.39
19236;BME280;9752;54.270;12.470;2023-05-22T17:19:51;101600.16;;;27.01;71.62
19236;BME280;9752;54.270;12.470;2023-05-22T17:24:53;101602.47;;;26.50;70.90
19236;BME280;9752;54.270;12.470;2023-05-22T17:29:56;101631.59;;;24.31;77.89
19236;BME280;9752;54.270;12.470;2023-05-22T17:34:57;101627.66;;;22.81;86.25
19236;BME280;9752;54.270;12.470;2023-05-22T17:39:59;101625.63;;;22.70;90.26
19236;BME280;9752;54.270;12.470;2023-05-22T17:45:03;101616.31;;;22.87;92.83
19236;BME280;9752;54.270;12.470;2023-05-22T17:50:06;101609.84;;;23.11;92.58
19236;BME280;9752;54.270;12.470;2023-05-22T17:55:08;101607.38;;;22.80;96.79
19236;BME280;9752;54.270;12.470;2023-05-22T18:00:13;101616.81;;;21.09;100.00
19236;BME280;9752;54.270;12.470;2023-05-22T18:05:15;101609.53;;;20.45;100.00
19236;BME280;9752;54.270;12.470;2023-05-22T18:10:16;101615.59;;;19.92;100.00
19236;BME280;9752;54.270;12.470;2023-05-22T18:15:20;101615.28;;;18.89;100.00
19236;BME280;9752;54.270;12.470;2023-05-22T18:20:21;101608.94;;;18.40;100.00
19236;BME280;9752;54.270;12.470;2023-05-22T18:25:23;101594.78;;;17.96;100.00
19236;BME280;9752;54.270;12.470;2023-05-22T18:30:26;101583.19;;;17.71;100.00
19236;BME280;9752;54.270;12.470;2023-05-22T18:35:28;101583.69;;;17.43;100.00
19236;BME280;9752;54.270;12.470;2023-05-22T18:40:30;101574.72;;;17.18;100.00
19236;BME280;9752;54.270;12.470;2023-05-22T18:45:33;101570.31;;;16.80;100.00
19236;BME280;9752;54.270;12.470;2023-05-22T18:50:34;101569.81;;;16.51;100.00
19236;BME280;9752;54.270;12.470;2023-05-22T18:55:36;101566.16;;;16.30;100.00
19236;BME280;9752;54.270;12.470;2023-05-22T19:00:39;101572.19;;;16.11;100.00
19236;BME280;9752;54.270;12.470;2023-05-22T19:05:41;101576.50;;;15.92;100.00
19236;BME280;9752;54.270;12.470;2023-05-22T19:10:43;101569.31;;;15.72;100.00
19236;BME280;9752;54.270;12.470;2023-05-22T19:15:46;101575.19;;;15.51;100.00
19236;BME280;9752;54.270;12.470;2023-05-22T19:20:47;101568.84;;;15.30;100.00
19236;BME280;9752;54.270;12.470;2023-05-22T19:25:49;101578.22;;;15.10;100.00
19236;BME280;9752;54.270;12.470;2023-05-22T19:30:53;101571.75;;;14.87;100.00
19236;BME280;9752;54.270;12.470;2023-05-22T19:35:57;101577.03;;;14.57;100.00
19236;BME280;9752;54.270;12.470;2023-05-22T19:40:59;101577.31;;;14.32;100.00
19236;BME280;9752;54.270;12.470;2023-05-22T19:46:02;101579.94;;;14.17;100.00
19236;BME280;9752;54.270;12.470;2023-05-22T19:51:04;101564.66;;;13.93;100.00
19236;BME280;9752;54.270;12.470;2023-05-22T19:56:08;101564.84;;;13.81;100.00
19236;BME280;9752;54.270;12.470;2023-05-22T20:01:11;101552.84;;;13.55;100.00
19236;BME280;9752;54.270;12.470;2023-05-22T20:06:12;101536.41;;;13.56;100.00
19236;BME280;9752;54.270;12.470;2023-05-22T20:11:14;101540.00;;;13.43;100.00
19236;BME280;9752;54.270;12.470;2023-05-22T20:16:17;101550.41;;;13.15;100.00
19236;BME280;9752;54.270;12.470;2023-05-22T20:21:19;101551.47;;;12.91;100.00
19236;BME280;9752;54.270;12.470;2023-05-22T20:26:21;101556.84;;;12.65;100.00
19236;BME280;9752;54.270;12.470;2023-05-22T20:31:24;101555.25;;;12.54;100.00
19236;BME280;9752;54.270;12.470;2023-05-22T20:36:25;101549.63;;;12.48;100.00
19236;BME280;9752;54.270;12.470;2023-05-22T20:41:27;101551.13;;;12.31;100.00
19236;BME280;9752;54.270;12.470;2023-05-22T20:46:30;101548.75;;;12.21;100.00
19236;BME280;9752;54.270;12.470;2023-05-22T20:51:32;101552.13;;;12.06;100.00
19236;BME280;9752;54.270;12.470;2023-05-22T20:56:34;101547.53;;;12.02;100.00
19236;BME280;9752;54.270;12.470;2023-05-22T21:01:38;101556.31;;;12.04;100.00
19236;BME280;9752;54.270;12.470;2023-05-22T21:06:40;101567.72;;;12.06;100.00
19236;BME280;9752;54.270;12.470;2023-05-22T21:11:41;101570.31;;;12.06;100.00
19236;BME280;9752;54.270;12.470;2023-05-22T21:16:44;101570.03;;;12.15;100.00
19236;BME280;9752;54.270;12.470;2023-05-22T21:21:46;101571.75;;;12.28;100.00
19236;BME280;9752;54.270;12.470;2023-05-22T21:26:48;101569.94;;;12.27;100.00
19236;BME280;9752;54.270;12.470;2023-05-22T21:31:51;101579.56;;;12.28;100.00
19236;BME280;9752;54.270;12.470;2023-05-22T21:36:52;101567.66;;;12.32;100.00
19236;BME280;9752;54.270;12.470;2023-05-22T21:41:54;101565.56;;;12.39;100.00
19236;BME280;9752;54.270;12.470;2023-05-22T21:46:57;101567.75;;;12.46;100.00
19236;BME280;9752;54.270;12.470;2023-05-22T21:51:59;101560.94;;;12.48;100.00
19236;BME280;9752;54.270;12.470;2023-05-22T21:57:01;101559.97;;;12.46;100.00
19236;BME280;9752;54.270;12.470;2023-05-22T22:02:04;101560.94;;;12.48;100.00
19236;BME280;9752;54.270;12.470;2023-05-22T22:07:06;101550.72;;;12.52;100.00
19236;BME280;9752;54.270;12.470;2023-05-22T22:12:07;101547.72;;;12.59;100.00
19236;BME280;9752;54.270;12.470;2023-05-22T22:17:10;101542.31;;;12.56;100.00
19236;BME280;9752;54.270;12.470;2023-05-22T22:22:12;101526.53;;;12.53;100.00
19236;BME280;9752;54.270;12.470;2023-05-22T22:27:14;101519.09;;;12.59;100.00
19236;BME280;9752;54.270;12.470;2023-05-22T22:32:17;101514.72;;;12.58;100.00
19236;BME280;9752;54.270;12.470;2023-05-22T22:37:19;101508.06;;;12.63;100.00
19236;BME280;9752;54.270;12.470;2023-05-22T22:42:21;101501.97;;;12.62;100.00
19236;BME280;9752;54.270;12.470;2023-05-22T22:47:25;101487.16;;;12.61;100.00
19236;BME280;9752;54.270;12.470;2023-05-22T22:52:27;101480.06;;;12.59;100.00
19236;BME280;9752;54.270;12.470;2023-05-22T22:57:29;101475.06;;;12.62;100.00
19236;BME280;9752;54.270;12.470;2023-05-22T23:02:32;101477.03;;;12.66;100.00
19236;BME280;9752;54.270;12.470;2023-05-22T23:07:34;101471.63;;;12.63;100.00
19236;BME280;9752;54.270;12.470;2023-05-22T23:12:36;101462.03;;;12.62;100.00
19236;BME280;9752;54.270;12.470;2023-05-22T23:17:39;101455.34;;;12.65;100.00
19236;BME280;9752;54.270;12.470;2023-05-22T23:22:41;101449.59;;;12.71;100.00
19236;BME280;9752;54.270;12.470;2023-05-22T23:27:43;101440.03;;;12.85;100.00
19236;BME280;9752;54.270;12.470;2023-05-22T23:32:46;101438.41;;;12.87;100.00
19236;BME280;9752;54.270;12.470;2023-05-22T23:37:48;101436.34;;;12.81;100.00
19236;BME280;9752;54.270;12.470;2023-05-22T23:42:49;101438.63;;;12.90;100.00
19236;BME280;9752;54.270;12.470;2023-05-22T23:47:52;101425.41;;;12.87;100.00
19236;BME280;9752;54.270;12.470;2023-05-22T23:52:54;101419.56;;;12.91;100.00
19236;BME280;9752;54.270;12.470;2023-05-22T23:57:56;101404.66;;;12.88;100.00
